UPLA180 USTR-USHS
Flight info
| Callsign | UPLA180 |
|---|---|
| Flight time | 1h 46m |
| Altitude | FL070 |
| Route | K0317F050 LAKED/K0324F070 L165 LUGIK/K0319F060 W320 PIGUR A120 OLEMI |
| Aircraft | DA42/L-SBDGRY/S |
Departure
| Time | 2026-05-08 15:58 |
|---|---|
| Airport | Roshchino International Airport (USTR) |
Arrival
| Time | 2026-05-08 17:44 |
|---|---|
| Airport | Sovetskiy Airport (USHS) |
| Time | Latitude | Longitude | Altitude | Speed | Heading |
|---|---|---|---|---|---|
| 2026-05-08 15:41 | 57.18634 | 65.33686 | 333 ft | 0 kts | 224° |
| 2026-05-08 15:49 | 57.18634 | 65.33685 | 333 ft | 0 kts | 224° |
| 2026-05-08 15:50 | 57.18634 | 65.33686 | 333 ft | 0 kts | 224° |
| 2026-05-08 15:50 | 57.18634 | 65.33685 | 333 ft | 0 kts | 224° |
| 2026-05-08 15:51 | 57.18634 | 65.33686 | 333 ft | 0 kts | 224° |
| 2026-05-08 15:52 | 57.18630 | 65.33678 | 332 ft | 0 kts | 224° |
| 2026-05-08 15:53 | 57.18622 | 65.33664 | 333 ft | 10 kts | 228° |
| 2026-05-08 15:53 | 57.18620 | 65.33439 | 334 ft | 24 kts | 270° |
| 2026-05-08 15:53 | 57.18543 | 65.33219 | 330 ft | 23 kts | 227° |
| 2026-05-08 15:53 | 57.18476 | 65.32953 | 327 ft | 26 kts | 267° |
| 2026-05-08 15:54 | 57.18470 | 65.32625 | 323 ft | 26 kts | 268° |
| 2026-05-08 15:54 | 57.18465 | 65.32299 | 325 ft | 24 kts | 269° |
| 2026-05-08 15:54 | 57.18459 | 65.31960 | 335 ft | 33 kts | 268° |
| 2026-05-08 15:54 | 57.18411 | 65.31671 | 344 ft | 19 kts | 227° |
| 2026-05-08 15:55 | 57.18324 | 65.31508 | 350 ft | 17 kts | 230° |
| 2026-05-08 15:55 | 57.18092 | 65.31024 | 362 ft | 28 kts | 227° |
| 2026-05-08 15:55 | 57.17972 | 65.30778 | 367 ft | 26 kts | 226° |
| 2026-05-08 15:56 | 57.17843 | 65.30529 | 371 ft | 28 kts | 227° |
| 2026-05-08 15:56 | 57.17730 | 65.30290 | 374 ft | 26 kts | 227° |
| 2026-05-08 15:56 | 57.17601 | 65.30036 | 377 ft | 28 kts | 225° |
| 2026-05-08 15:56 | 57.17466 | 65.29756 | 380 ft | 29 kts | 229° |
| 2026-05-08 15:57 | 57.17391 | 65.29501 | 381 ft | 20 kts | 307° |
| 2026-05-08 15:57 | 57.17504 | 65.29320 | 380 ft | 20 kts | 344° |
| 2026-05-08 15:57 | 57.17527 | 65.29334 | 380 ft | 0 kts | 51° |
| 2026-05-08 15:57 | 57.17550 | 65.29385 | 380 ft | 27 kts | 49° |
| 2026-05-08 15:58 | 57.17804 | 65.29899 | 374 ft | 77 kts | 47° |
| 2026-05-08 15:58 | 57.18202 | 65.30702 | 503 ft | 89 kts | 48° |
| 2026-05-08 15:58 | 57.18627 | 65.31557 | 768 ft | 90 kts | 49° |
| 2026-05-08 15:58 | 57.19046 | 65.32403 | 1025 ft | 91 kts | 51° |
| 2026-05-08 15:59 | 57.19466 | 65.33253 | 1334 ft | 89 kts | 55° |
| 2026-05-08 15:59 | 57.19877 | 65.34088 | 1645 ft | 88 kts | 59° |
| 2026-05-08 15:59 | 57.20288 | 65.34925 | 1942 ft | 89 kts | 59° |
| 2026-05-08 15:59 | 57.20707 | 65.35777 | 2194 ft | 91 kts | 59° |
| 2026-05-08 16:00 | 57.21138 | 65.36653 | 2404 ft | 93 kts | 59° |
| 2026-05-08 16:00 | 57.21577 | 65.37548 | 2630 ft | 95 kts | 59° |
| 2026-05-08 16:00 | 57.22024 | 65.38456 | 2864 ft | 96 kts | 59° |
| 2026-05-08 16:00 | 57.22478 | 65.39379 | 3098 ft | 98 kts | 59° |
| 2026-05-08 16:01 | 57.22938 | 65.40314 | 3320 ft | 99 kts | 57° |
| 2026-05-08 16:01 | 57.23406 | 65.41267 | 3540 ft | 101 kts | 56° |
| 2026-05-08 16:01 | 57.23882 | 65.42236 | 3766 ft | 103 kts | 53° |
| 2026-05-08 16:01 | 57.24371 | 65.43232 | 3973 ft | 106 kts | 52° |
| 2026-05-08 16:02 | 57.24870 | 65.44248 | 4202 ft | 108 kts | 50° |
| 2026-05-08 16:02 | 57.25377 | 65.45281 | 4427 ft | 110 kts | 49° |
| 2026-05-08 16:02 | 57.25975 | 65.46136 | 4637 ft | 110 kts | 14° |
| 2026-05-08 16:02 | 57.26724 | 65.46275 | 4851 ft | 108 kts | 355° |
| 2026-05-08 16:03 | 57.27474 | 65.46299 | 5084 ft | 108 kts | 355° |
| 2026-05-08 16:03 | 57.28223 | 65.46323 | 5306 ft | 108 kts | 355° |
| 2026-05-08 16:03 | 57.28975 | 65.46350 | 5532 ft | 108 kts | 355° |
| 2026-05-08 16:03 | 57.29724 | 65.46379 | 5761 ft | 108 kts | 355° |
| 2026-05-08 16:04 | 57.30473 | 65.46408 | 5993 ft | 108 kts | 355° |
| 2026-05-08 16:04 | 57.31222 | 65.46438 | 6226 ft | 108 kts | 355° |
| 2026-05-08 16:04 | 57.31972 | 65.46469 | 6445 ft | 108 kts | 355° |
| 2026-05-08 16:04 | 57.32724 | 65.46499 | 6667 ft | 109 kts | 355° |
| 2026-05-08 16:05 | 57.33482 | 65.46531 | 6874 ft | 110 kts | 355° |
| 2026-05-08 16:05 | 57.34307 | 65.46561 | 6902 ft | 128 kts | 356° |
| 2026-05-08 16:05 | 57.35250 | 65.46601 | 6896 ft | 142 kts | 357° |
| 2026-05-08 16:05 | 57.36266 | 65.46646 | 6899 ft | 150 kts | 357° |
| 2026-05-08 16:06 | 57.37325 | 65.46691 | 6901 ft | 155 kts | 357° |
| 2026-05-08 16:06 | 57.38411 | 65.46737 | 6902 ft | 158 kts | 357° |
| 2026-05-08 16:06 | 57.39514 | 65.46782 | 6902 ft | 160 kts | 357° |
| 2026-05-08 16:06 | 57.40626 | 65.46828 | 6902 ft | 161 kts | 357° |
| 2026-05-08 16:07 | 57.41743 | 65.46874 | 6902 ft | 161 kts | 357° |
| 2026-05-08 16:07 | 57.42862 | 65.46921 | 6903 ft | 161 kts | 357° |
| 2026-05-08 16:07 | 57.43984 | 65.46968 | 6903 ft | 162 kts | 357° |
| 2026-05-08 16:07 | 57.45107 | 65.47015 | 6904 ft | 162 kts | 357° |
| 2026-05-08 16:08 | 57.46231 | 65.47062 | 6905 ft | 162 kts | 357° |
| 2026-05-08 16:08 | 57.47357 | 65.47109 | 6905 ft | 162 kts | 357° |
| 2026-05-08 16:08 | 57.48484 | 65.47157 | 6907 ft | 163 kts | 356° |
| 2026-05-08 16:08 | 57.49618 | 65.47203 | 6902 ft | 163 kts | 356° |
| 2026-05-08 16:09 | 57.50739 | 65.47250 | 6904 ft | 161 kts | 356° |
| 2026-05-08 16:09 | 57.51484 | 65.47280 | 6903 ft | 161 kts | 356° |
| 2026-05-08 16:09 | 57.52973 | 65.47341 | 6904 ft | 161 kts | 356° |
| 2026-05-08 16:09 | 57.54089 | 65.47388 | 6904 ft | 161 kts | 356° |
| 2026-05-08 16:10 | 57.55206 | 65.47435 | 6909 ft | 161 kts | 356° |
| 2026-05-08 16:10 | 57.56324 | 65.47482 | 6909 ft | 161 kts | 356° |
| 2026-05-08 16:10 | 57.57445 | 65.47529 | 6909 ft | 161 kts | 356° |
| 2026-05-08 16:10 | 57.58564 | 65.47576 | 6909 ft | 161 kts | 356° |
| 2026-05-08 16:11 | 57.59685 | 65.47623 | 6909 ft | 161 kts | 356° |
| 2026-05-08 16:11 | 57.60803 | 65.47670 | 6909 ft | 161 kts | 356° |
| 2026-05-08 16:11 | 57.61922 | 65.47818 | 6909 ft | 162 kts | 1° |
| 2026-05-08 16:11 | 57.63044 | 65.48042 | 6909 ft | 162 kts | 1° |
| 2026-05-08 16:12 | 57.64164 | 65.48266 | 6906 ft | 162 kts | 1° |
| 2026-05-08 16:12 | 57.65285 | 65.48493 | 6906 ft | 162 kts | 1° |
| 2026-05-08 16:12 | 57.66405 | 65.48722 | 6908 ft | 162 kts | 1° |
| 2026-05-08 16:12 | 57.67526 | 65.48951 | 6909 ft | 162 kts | 1° |
| 2026-05-08 16:13 | 57.68646 | 65.49180 | 6909 ft | 162 kts | 1° |
| 2026-05-08 16:13 | 57.69767 | 65.49409 | 6910 ft | 162 kts | 1° |
| 2026-05-08 16:13 | 57.70514 | 65.49562 | 6910 ft | 163 kts | 1° |
| 2026-05-08 16:13 | 57.72010 | 65.49868 | 6909 ft | 162 kts | 1° |
| 2026-05-08 16:14 | 57.73132 | 65.50098 | 6912 ft | 162 kts | 1° |
| 2026-05-08 16:14 | 57.74254 | 65.50328 | 6912 ft | 162 kts | 1° |
| 2026-05-08 16:14 | 57.75374 | 65.50558 | 6912 ft | 162 kts | 1° |
| 2026-05-08 16:14 | 57.76494 | 65.50788 | 6911 ft | 162 kts | 1° |
| 2026-05-08 16:15 | 57.77617 | 65.51018 | 6912 ft | 162 kts | 1° |
| 2026-05-08 16:15 | 57.78737 | 65.51248 | 6912 ft | 162 kts | 1° |
| 2026-05-08 16:15 | 57.79859 | 65.51479 | 6913 ft | 163 kts | 1° |
| 2026-05-08 16:15 | 57.80981 | 65.51710 | 6915 ft | 162 kts | 1° |
| 2026-05-08 16:16 | 57.82102 | 65.51941 | 6914 ft | 162 kts | 1° |
| 2026-05-08 16:16 | 57.83222 | 65.52172 | 6914 ft | 162 kts | 1° |
| 2026-05-08 16:16 | 57.84341 | 65.52403 | 6914 ft | 162 kts | 1° |
| 2026-05-08 16:16 | 57.85461 | 65.52633 | 6914 ft | 162 kts | 1° |
| 2026-05-08 16:17 | 57.86580 | 65.52865 | 6914 ft | 162 kts | 1° |
| 2026-05-08 16:17 | 57.87326 | 65.53019 | 6914 ft | 162 kts | 1° |
| 2026-05-08 16:17 | 57.88822 | 65.53328 | 6915 ft | 163 kts | 1° |
| 2026-05-08 16:17 | 57.89948 | 65.53561 | 6915 ft | 163 kts | 1° |
| 2026-05-08 16:18 | 57.91076 | 65.53794 | 6915 ft | 164 kts | 1° |
| 2026-05-08 16:18 | 57.92204 | 65.54028 | 6916 ft | 163 kts | 1° |
| 2026-05-08 16:18 | 57.93331 | 65.54262 | 6916 ft | 164 kts | 1° |
| 2026-05-08 16:18 | 57.94464 | 65.54496 | 6915 ft | 164 kts | 1° |
| 2026-05-08 16:19 | 57.95595 | 65.54731 | 6915 ft | 164 kts | 1° |
| 2026-05-08 16:19 | 57.96727 | 65.54966 | 6915 ft | 164 kts | 1° |
| 2026-05-08 16:19 | 57.97857 | 65.55201 | 6913 ft | 164 kts | 1° |
| 2026-05-08 16:19 | 57.98989 | 65.55436 | 6913 ft | 164 kts | 1° |
| 2026-05-08 16:20 | 58.00121 | 65.55672 | 6918 ft | 164 kts | 1° |
| 2026-05-08 16:20 | 58.01250 | 65.55907 | 6915 ft | 164 kts | 1° |
| 2026-05-08 16:20 | 58.02381 | 65.56142 | 6915 ft | 164 kts | 1° |
| 2026-05-08 16:20 | 58.03511 | 65.56378 | 6916 ft | 164 kts | 1° |
| 2026-05-08 16:21 | 58.04642 | 65.56614 | 6916 ft | 164 kts | 1° |
| 2026-05-08 16:21 | 58.05771 | 65.56850 | 6916 ft | 164 kts | 1° |
| 2026-05-08 16:21 | 58.06899 | 65.57085 | 6915 ft | 163 kts | 1° |
| 2026-05-08 16:21 | 58.08025 | 65.57321 | 6915 ft | 163 kts | 1° |
| 2026-05-08 16:22 | 58.09152 | 65.57556 | 6918 ft | 163 kts | 1° |
| 2026-05-08 16:22 | 58.09902 | 65.57713 | 6918 ft | 163 kts | 1° |
| 2026-05-08 16:22 | 58.11405 | 65.58028 | 6915 ft | 164 kts | 0° |
| 2026-05-08 16:22 | 58.12531 | 65.58264 | 6914 ft | 163 kts | 0° |
| 2026-05-08 16:23 | 58.13659 | 65.58500 | 6911 ft | 163 kts | 0° |
| 2026-05-08 16:23 | 58.14783 | 65.58735 | 6912 ft | 163 kts | 0° |
| 2026-05-08 16:23 | 58.15906 | 65.58971 | 6912 ft | 163 kts | 0° |
| 2026-05-08 16:23 | 58.17031 | 65.59207 | 6911 ft | 163 kts | 0° |
| 2026-05-08 16:24 | 58.18157 | 65.59444 | 6914 ft | 163 kts | 0° |
| 2026-05-08 16:24 | 58.19279 | 65.59680 | 6914 ft | 163 kts | 0° |
| 2026-05-08 16:24 | 58.20404 | 65.59916 | 6920 ft | 163 kts | 0° |
| 2026-05-08 16:24 | 58.21528 | 65.60153 | 6920 ft | 163 kts | 0° |
| 2026-05-08 16:25 | 58.22654 | 65.60390 | 6917 ft | 163 kts | 0° |
| 2026-05-08 16:25 | 58.23778 | 65.60628 | 6918 ft | 163 kts | 0° |
| 2026-05-08 16:25 | 58.24904 | 65.60865 | 6917 ft | 163 kts | 0° |
| 2026-05-08 16:25 | 58.26030 | 65.61103 | 6917 ft | 163 kts | 0° |
| 2026-05-08 16:26 | 58.27155 | 65.61340 | 6917 ft | 163 kts | 0° |
| 2026-05-08 16:26 | 58.28279 | 65.61578 | 6917 ft | 163 kts | 0° |
| 2026-05-08 16:26 | 58.29403 | 65.61815 | 6917 ft | 163 kts | 0° |
| 2026-05-08 16:26 | 58.30523 | 65.62052 | 6917 ft | 163 kts | 0° |
| 2026-05-08 16:27 | 58.31647 | 65.62290 | 6923 ft | 163 kts | 0° |
| 2026-05-08 16:27 | 58.32772 | 65.62529 | 6918 ft | 163 kts | 0° |
| 2026-05-08 16:27 | 58.33895 | 65.62767 | 6918 ft | 163 kts | 0° |
| 2026-05-08 16:27 | 58.35021 | 65.63006 | 6918 ft | 163 kts | 0° |
| 2026-05-08 16:28 | 58.36145 | 65.63245 | 6917 ft | 163 kts | 0° |
| 2026-05-08 16:28 | 58.37269 | 65.63483 | 6918 ft | 163 kts | 0° |
| 2026-05-08 16:28 | 58.38395 | 65.63722 | 6918 ft | 163 kts | 0° |
| 2026-05-08 16:28 | 58.39520 | 65.63962 | 6921 ft | 163 kts | 0° |
| 2026-05-08 16:29 | 58.40647 | 65.64202 | 6920 ft | 163 kts | 0° |
| 2026-05-08 16:29 | 58.41771 | 65.64441 | 6922 ft | 163 kts | 0° |
| 2026-05-08 16:29 | 58.42900 | 65.64683 | 6917 ft | 164 kts | 0° |
| 2026-05-08 16:29 | 58.44032 | 65.64921 | 6923 ft | 164 kts | 0° |
| 2026-05-08 16:30 | 58.45166 | 65.65164 | 6922 ft | 164 kts | 0° |
| 2026-05-08 16:30 | 58.46298 | 65.65408 | 6923 ft | 164 kts | 0° |
| 2026-05-08 16:30 | 58.47429 | 65.65649 | 6923 ft | 164 kts | 0° |
| 2026-05-08 16:30 | 58.48563 | 65.65891 | 6923 ft | 164 kts | 0° |
| 2026-05-08 16:31 | 58.49696 | 65.66134 | 6926 ft | 164 kts | 0° |
| 2026-05-08 16:31 | 58.50829 | 65.66377 | 6927 ft | 164 kts | 0° |
| 2026-05-08 16:31 | 58.51964 | 65.66620 | 6927 ft | 165 kts | 0° |
| 2026-05-08 16:31 | 58.53099 | 65.66864 | 6927 ft | 164 kts | 0° |
| 2026-05-08 16:32 | 58.54234 | 65.67107 | 6924 ft | 164 kts | 0° |
| 2026-05-08 16:32 | 58.55369 | 65.67350 | 6927 ft | 165 kts | 0° |
| 2026-05-08 16:32 | 58.56504 | 65.67594 | 6927 ft | 165 kts | 0° |
| 2026-05-08 16:32 | 58.57642 | 65.67839 | 6927 ft | 165 kts | 0° |
| 2026-05-08 16:33 | 58.58780 | 65.68084 | 6927 ft | 165 kts | 0° |
| 2026-05-08 16:33 | 58.59919 | 65.68329 | 6928 ft | 165 kts | 0° |
| 2026-05-08 16:33 | 58.61059 | 65.68574 | 6928 ft | 165 kts | 0° |
| 2026-05-08 16:33 | 58.62198 | 65.68820 | 6928 ft | 165 kts | 0° |
| 2026-05-08 16:34 | 58.63338 | 65.69066 | 6925 ft | 165 kts | 0° |
| 2026-05-08 16:34 | 58.64477 | 65.69312 | 6925 ft | 165 kts | 0° |
| 2026-05-08 16:34 | 58.65617 | 65.69558 | 6925 ft | 165 kts | 0° |
| 2026-05-08 16:34 | 58.66757 | 65.69804 | 6931 ft | 165 kts | 0° |
| 2026-05-08 16:35 | 58.67897 | 65.70050 | 6933 ft | 165 kts | 0° |
| 2026-05-08 16:35 | 58.69037 | 65.70297 | 6933 ft | 165 kts | 0° |
| 2026-05-08 16:35 | 58.70178 | 65.70544 | 6934 ft | 165 kts | 0° |
| 2026-05-08 16:35 | 58.71320 | 65.70791 | 6934 ft | 165 kts | 0° |
| 2026-05-08 16:36 | 58.72081 | 65.70956 | 6931 ft | 165 kts | 0° |
| 2026-05-08 16:36 | 58.73604 | 65.71287 | 6931 ft | 165 kts | 1° |
| 2026-05-08 16:36 | 58.74748 | 65.71535 | 6927 ft | 167 kts | 0° |
| 2026-05-08 16:36 | 58.75895 | 65.71784 | 6928 ft | 166 kts | 0° |
| 2026-05-08 16:37 | 58.77038 | 65.72033 | 6928 ft | 165 kts | 0° |
| 2026-05-08 16:37 | 58.78179 | 65.72281 | 6928 ft | 165 kts | 0° |
| 2026-05-08 16:37 | 58.79317 | 65.72528 | 6928 ft | 165 kts | 0° |
| 2026-05-08 16:37 | 58.80454 | 65.72776 | 6931 ft | 165 kts | 0° |
| 2026-05-08 16:38 | 58.81590 | 65.73023 | 6928 ft | 165 kts | 0° |
| 2026-05-08 16:38 | 58.82724 | 65.73271 | 6928 ft | 164 kts | 0° |
| 2026-05-08 16:38 | 58.83858 | 65.73518 | 6929 ft | 164 kts | 0° |
| 2026-05-08 16:38 | 58.84994 | 65.73766 | 6929 ft | 165 kts | 0° |
| 2026-05-08 16:39 | 58.86130 | 65.74014 | 6931 ft | 165 kts | 0° |
| 2026-05-08 16:39 | 58.87264 | 65.74262 | 6930 ft | 164 kts | 0° |
| 2026-05-08 16:39 | 58.88396 | 65.74510 | 6937 ft | 164 kts | 0° |
| 2026-05-08 16:39 | 58.89529 | 65.74758 | 6936 ft | 164 kts | 0° |
| 2026-05-08 16:40 | 58.90283 | 65.74923 | 6937 ft | 164 kts | 0° |
| 2026-05-08 16:40 | 58.91794 | 65.75254 | 6937 ft | 164 kts | 0° |
| 2026-05-08 16:40 | 58.92929 | 65.75503 | 6937 ft | 165 kts | 0° |
| 2026-05-08 16:40 | 58.94065 | 65.75752 | 6937 ft | 165 kts | 0° |
| 2026-05-08 16:41 | 58.95202 | 65.76002 | 6937 ft | 165 kts | 0° |
| 2026-05-08 16:41 | 58.96340 | 65.76253 | 6938 ft | 165 kts | 0° |
| 2026-05-08 16:41 | 58.97478 | 65.76503 | 6937 ft | 165 kts | 1° |
| 2026-05-08 16:42 | 58.99751 | 65.77004 | 6940 ft | 165 kts | 1° |
| 2026-05-08 16:42 | 59.00886 | 65.77254 | 6938 ft | 164 kts | 1° |
| 2026-05-08 16:42 | 59.02019 | 65.77503 | 6938 ft | 164 kts | 1° |
| 2026-05-08 16:42 | 59.03149 | 65.77753 | 6938 ft | 164 kts | 1° |
| 2026-05-08 16:43 | 59.04278 | 65.78002 | 6936 ft | 163 kts | 1° |
| 2026-05-08 16:43 | 59.05405 | 65.78250 | 6936 ft | 163 kts | 1° |
| 2026-05-08 16:43 | 59.06533 | 65.78499 | 6941 ft | 165 kts | 2° |
| 2026-05-08 16:43 | 59.07672 | 65.78751 | 6939 ft | 165 kts | 2° |
| 2026-05-08 16:44 | 59.08812 | 65.79004 | 6942 ft | 165 kts | 2° |
| 2026-05-08 16:44 | 59.09953 | 65.79257 | 6940 ft | 165 kts | 2° |
| 2026-05-08 16:44 | 59.11095 | 65.79511 | 6946 ft | 166 kts | 2° |
| 2026-05-08 16:44 | 59.12237 | 65.79764 | 6946 ft | 166 kts | 2° |
| 2026-05-08 16:45 | 59.13380 | 65.80017 | 6943 ft | 166 kts | 2° |
| 2026-05-08 16:45 | 59.14522 | 65.80271 | 6943 ft | 166 kts | 2° |
| 2026-05-08 16:45 | 59.15663 | 65.80525 | 6943 ft | 166 kts | 2° |
| 2026-05-08 16:45 | 59.16806 | 65.80779 | 6943 ft | 166 kts | 2° |
| 2026-05-08 16:46 | 59.17949 | 65.81034 | 6946 ft | 166 kts | 2° |
| 2026-05-08 16:46 | 59.19092 | 65.81288 | 6946 ft | 166 kts | 2° |
| 2026-05-08 16:46 | 59.20235 | 65.81543 | 6946 ft | 166 kts | 2° |
| 2026-05-08 16:46 | 59.21379 | 65.81799 | 6946 ft | 166 kts | 2° |
| 2026-05-08 16:47 | 59.22521 | 65.82054 | 6946 ft | 166 kts | 2° |
| 2026-05-08 16:47 | 59.23665 | 65.82309 | 6946 ft | 166 kts | 2° |
| 2026-05-08 16:47 | 59.24807 | 65.82564 | 6946 ft | 166 kts | 2° |
| 2026-05-08 16:47 | 59.25950 | 65.82820 | 6946 ft | 166 kts | 2° |
| 2026-05-08 16:48 | 59.27093 | 65.83076 | 6946 ft | 166 kts | 2° |
| 2026-05-08 16:48 | 59.28236 | 65.83331 | 6947 ft | 166 kts | 2° |
| 2026-05-08 16:48 | 59.29377 | 65.83587 | 6946 ft | 165 kts | 2° |
| 2026-05-08 16:48 | 59.30519 | 65.83843 | 6946 ft | 165 kts | 2° |
| 2026-05-08 16:49 | 59.31662 | 65.84099 | 6944 ft | 165 kts | 2° |
| 2026-05-08 16:49 | 59.32803 | 65.84356 | 6947 ft | 166 kts | 2° |
| 2026-05-08 16:49 | 59.33945 | 65.84612 | 6956 ft | 166 kts | 2° |
| 2026-05-08 16:49 | 59.35088 | 65.84870 | 6957 ft | 166 kts | 2° |
| 2026-05-08 16:50 | 59.36231 | 65.85127 | 6957 ft | 166 kts | 2° |
| 2026-05-08 16:50 | 59.37373 | 65.85384 | 6957 ft | 166 kts | 2° |
| 2026-05-08 16:50 | 59.38517 | 65.85642 | 6967 ft | 166 kts | 5° |
| 2026-05-08 16:50 | 59.39664 | 65.85904 | 6951 ft | 167 kts | 4° |
| 2026-05-08 16:51 | 59.40815 | 65.86158 | 6953 ft | 167 kts | 4° |
| 2026-05-08 16:51 | 59.41965 | 65.86416 | 6949 ft | 167 kts | 4° |
| 2026-05-08 16:51 | 59.43117 | 65.86677 | 6946 ft | 167 kts | 4° |
| 2026-05-08 16:51 | 59.44268 | 65.86939 | 6946 ft | 167 kts | 4° |
| 2026-05-08 16:52 | 59.45418 | 65.87199 | 6945 ft | 167 kts | 4° |
| 2026-05-08 16:52 | 59.46566 | 65.87459 | 6954 ft | 167 kts | 4° |
| 2026-05-08 16:52 | 59.47715 | 65.87719 | 6950 ft | 167 kts | 4° |
| 2026-05-08 16:52 | 59.48867 | 65.87980 | 6950 ft | 167 kts | 4° |
| 2026-05-08 16:53 | 59.51166 | 65.88502 | 6946 ft | 167 kts | 4° |
| 2026-05-08 16:53 | 59.52317 | 65.88764 | 6953 ft | 167 kts | 4° |
| 2026-05-08 16:53 | 59.53467 | 65.89025 | 6953 ft | 167 kts | 4° |
| 2026-05-08 16:54 | 59.54615 | 65.89286 | 6950 ft | 167 kts | 4° |
| 2026-05-08 16:54 | 59.55765 | 65.89548 | 6950 ft | 167 kts | 4° |
| 2026-05-08 16:54 | 59.56912 | 65.89810 | 6958 ft | 166 kts | 4° |
| 2026-05-08 16:54 | 59.58057 | 65.90071 | 6958 ft | 166 kts | 4° |
| 2026-05-08 16:55 | 59.59199 | 65.90331 | 6954 ft | 165 kts | 4° |
| 2026-05-08 16:55 | 59.60340 | 65.90591 | 6957 ft | 165 kts | 4° |
| 2026-05-08 16:55 | 59.61481 | 65.90852 | 6958 ft | 165 kts | 4° |
| 2026-05-08 16:55 | 59.62619 | 65.91112 | 6958 ft | 165 kts | 4° |
| 2026-05-08 16:56 | 59.63759 | 65.91373 | 6958 ft | 165 kts | 4° |
| 2026-05-08 16:56 | 59.64895 | 65.91633 | 6958 ft | 165 kts | 4° |
| 2026-05-08 16:56 | 59.66034 | 65.91894 | 6957 ft | 165 kts | 4° |
| 2026-05-08 16:56 | 59.67201 | 65.92160 | 6783 ft | 174 kts | 5° |
| 2026-05-08 16:57 | 59.68430 | 65.92442 | 6548 ft | 182 kts | 6° |
| 2026-05-08 16:57 | 59.69698 | 65.92735 | 6298 ft | 185 kts | 7° |
| 2026-05-08 16:57 | 59.70961 | 65.92659 | 6054 ft | 177 kts | 346° |
| 2026-05-08 16:57 | 59.72044 | 65.91696 | 5970 ft | 168 kts | 323° |
| 2026-05-08 16:58 | 59.72850 | 65.90083 | 5965 ft | 164 kts | 303° |
| 2026-05-08 16:58 | 59.73525 | 65.88283 | 5963 ft | 162 kts | 303° |
| 2026-05-08 16:58 | 59.74190 | 65.86488 | 5961 ft | 162 kts | 302° |
| 2026-05-08 16:58 | 59.74853 | 65.84698 | 5961 ft | 161 kts | 302° |
| 2026-05-08 16:59 | 59.75515 | 65.82909 | 5957 ft | 162 kts | 303° |
| 2026-05-08 16:59 | 59.76180 | 65.81114 | 5956 ft | 162 kts | 302° |
| 2026-05-08 16:59 | 59.76844 | 65.79319 | 5955 ft | 161 kts | 303° |
| 2026-05-08 16:59 | 59.77506 | 65.77531 | 5956 ft | 161 kts | 303° |
| 2026-05-08 17:00 | 59.78167 | 65.75745 | 5954 ft | 161 kts | 303° |
| 2026-05-08 17:00 | 59.78826 | 65.73962 | 5961 ft | 160 kts | 302° |
| 2026-05-08 17:00 | 59.79482 | 65.72174 | 5961 ft | 161 kts | 302° |
| 2026-05-08 17:00 | 59.80143 | 65.70381 | 5956 ft | 161 kts | 302° |
| 2026-05-08 17:01 | 59.80804 | 65.68590 | 5958 ft | 161 kts | 302° |
| 2026-05-08 17:01 | 59.81463 | 65.66799 | 5958 ft | 161 kts | 302° |
| 2026-05-08 17:01 | 59.82122 | 65.65008 | 5957 ft | 161 kts | 302° |
| 2026-05-08 17:01 | 59.82779 | 65.63220 | 5957 ft | 161 kts | 302° |
| 2026-05-08 17:02 | 59.83218 | 65.62027 | 5958 ft | 161 kts | 303° |
| 2026-05-08 17:02 | 59.84097 | 65.59633 | 5953 ft | 162 kts | 302° |
| 2026-05-08 17:02 | 59.84756 | 65.57833 | 5952 ft | 162 kts | 302° |
| 2026-05-08 17:02 | 59.85417 | 65.56029 | 5953 ft | 162 kts | 302° |
| 2026-05-08 17:03 | 59.86078 | 65.54223 | 5955 ft | 162 kts | 302° |
| 2026-05-08 17:03 | 59.86739 | 65.52418 | 5955 ft | 162 kts | 302° |
| 2026-05-08 17:03 | 59.87400 | 65.50610 | 5956 ft | 162 kts | 302° |
| 2026-05-08 17:03 | 59.88063 | 65.48796 | 5961 ft | 162 kts | 302° |
| 2026-05-08 17:04 | 59.88726 | 65.46979 | 5961 ft | 163 kts | 302° |
| 2026-05-08 17:04 | 59.89389 | 65.45162 | 5960 ft | 162 kts | 302° |
| 2026-05-08 17:04 | 59.90050 | 65.43349 | 5959 ft | 162 kts | 302° |
| 2026-05-08 17:04 | 59.90711 | 65.41535 | 5961 ft | 162 kts | 302° |
| 2026-05-08 17:05 | 59.91371 | 65.39718 | 5958 ft | 162 kts | 302° |
| 2026-05-08 17:05 | 59.92032 | 65.37901 | 5958 ft | 162 kts | 302° |
| 2026-05-08 17:05 | 59.92694 | 65.36079 | 5957 ft | 162 kts | 302° |
| 2026-05-08 17:05 | 59.93353 | 65.34265 | 5957 ft | 162 kts | 302° |
| 2026-05-08 17:06 | 59.94013 | 65.32445 | 5960 ft | 162 kts | 302° |
| 2026-05-08 17:06 | 59.94671 | 65.30632 | 5961 ft | 162 kts | 302° |
| 2026-05-08 17:06 | 59.95329 | 65.28813 | 5960 ft | 162 kts | 302° |
| 2026-05-08 17:06 | 59.95985 | 65.27001 | 5964 ft | 161 kts | 302° |
| 2026-05-08 17:07 | 59.96641 | 65.25187 | 5971 ft | 161 kts | 302° |
| 2026-05-08 17:07 | 59.97295 | 65.23375 | 5972 ft | 162 kts | 302° |
| 2026-05-08 17:07 | 59.97953 | 65.21554 | 5972 ft | 162 kts | 302° |
| 2026-05-08 17:07 | 59.98610 | 65.19732 | 5972 ft | 162 kts | 302° |
| 2026-05-08 17:08 | 59.99268 | 65.17909 | 5968 ft | 162 kts | 302° |
| 2026-05-08 17:08 | 59.99925 | 65.16085 | 5967 ft | 162 kts | 302° |
| 2026-05-08 17:08 | 60.00571 | 65.14292 | 5970 ft | 162 kts | 302° |
| 2026-05-08 17:08 | 60.01225 | 65.12471 | 5959 ft | 162 kts | 302° |
| 2026-05-08 17:09 | 60.01879 | 65.10652 | 5960 ft | 162 kts | 302° |
| 2026-05-08 17:09 | 60.02534 | 65.08827 | 5960 ft | 162 kts | 302° |
| 2026-05-08 17:09 | 60.03190 | 65.06999 | 5962 ft | 162 kts | 302° |
| 2026-05-08 17:09 | 60.03846 | 65.05168 | 5968 ft | 162 kts | 302° |
| 2026-05-08 17:10 | 60.04503 | 65.03336 | 5974 ft | 162 kts | 301° |
| 2026-05-08 17:10 | 60.05158 | 65.01507 | 5974 ft | 162 kts | 302° |
| 2026-05-08 17:10 | 60.05813 | 64.99675 | 5974 ft | 162 kts | 302° |
| 2026-05-08 17:10 | 60.06468 | 64.97843 | 5973 ft | 162 kts | 301° |
| 2026-05-08 17:11 | 60.07122 | 64.96013 | 5967 ft | 162 kts | 302° |
| 2026-05-08 17:11 | 60.07775 | 64.94183 | 5968 ft | 161 kts | 301° |
| 2026-05-08 17:11 | 60.08426 | 64.92356 | 5967 ft | 162 kts | 302° |
| 2026-05-08 17:11 | 60.09082 | 64.90516 | 5966 ft | 163 kts | 301° |
| 2026-05-08 17:12 | 60.09739 | 64.88669 | 5970 ft | 163 kts | 301° |
| 2026-05-08 17:12 | 60.10178 | 64.87436 | 5971 ft | 163 kts | 301° |
| 2026-05-08 17:12 | 60.11056 | 64.84966 | 5971 ft | 164 kts | 302° |
| 2026-05-08 17:12 | 60.11797 | 64.83225 | 5967 ft | 167 kts | 319° |
| 2026-05-08 17:13 | 60.12810 | 64.82071 | 5992 ft | 169 kts | 332° |
| 2026-05-08 17:13 | 60.13873 | 64.81054 | 5993 ft | 170 kts | 333° |
| 2026-05-08 17:13 | 60.14586 | 64.80378 | 5993 ft | 171 kts | 333° |
| 2026-05-08 17:13 | 60.16013 | 64.79009 | 5993 ft | 171 kts | 332° |
| 2026-05-08 17:14 | 60.17087 | 64.77974 | 5988 ft | 172 kts | 332° |
| 2026-05-08 17:14 | 60.18162 | 64.76935 | 5988 ft | 172 kts | 332° |
| 2026-05-08 17:14 | 60.19238 | 64.75896 | 5988 ft | 172 kts | 332° |
| 2026-05-08 17:14 | 60.20310 | 64.74859 | 5988 ft | 172 kts | 332° |
| 2026-05-08 17:15 | 60.21384 | 64.73819 | 5987 ft | 172 kts | 332° |
| 2026-05-08 17:15 | 60.22461 | 64.72777 | 5989 ft | 172 kts | 332° |
| 2026-05-08 17:15 | 60.23535 | 64.71735 | 5997 ft | 172 kts | 332° |
| 2026-05-08 17:15 | 60.24612 | 64.70690 | 5995 ft | 172 kts | 332° |
| 2026-05-08 17:16 | 60.25328 | 64.69996 | 5993 ft | 172 kts | 332° |
| 2026-05-08 17:16 | 60.26756 | 64.68609 | 5993 ft | 171 kts | 332° |
| 2026-05-08 17:16 | 60.27824 | 64.67571 | 5993 ft | 171 kts | 332° |
| 2026-05-08 17:16 | 60.28892 | 64.66532 | 5993 ft | 171 kts | 332° |
| 2026-05-08 17:17 | 60.29959 | 64.65493 | 5993 ft | 171 kts | 332° |
| 2026-05-08 17:17 | 60.31027 | 64.64453 | 5992 ft | 171 kts | 332° |
| 2026-05-08 17:17 | 60.32095 | 64.63412 | 5994 ft | 171 kts | 332° |
| 2026-05-08 17:17 | 60.33166 | 64.62366 | 5995 ft | 172 kts | 332° |
| 2026-05-08 17:18 | 60.34240 | 64.61318 | 6002 ft | 172 kts | 332° |
| 2026-05-08 17:18 | 60.35316 | 64.60266 | 6002 ft | 172 kts | 332° |
| 2026-05-08 17:18 | 60.36393 | 64.59213 | 6003 ft | 172 kts | 332° |
| 2026-05-08 17:18 | 60.37469 | 64.58160 | 6003 ft | 172 kts | 332° |
| 2026-05-08 17:19 | 60.38546 | 64.57106 | 6000 ft | 172 kts | 332° |
| 2026-05-08 17:19 | 60.39630 | 64.56045 | 5999 ft | 174 kts | 331° |
| 2026-05-08 17:19 | 60.40721 | 64.54974 | 5999 ft | 175 kts | 331° |
| 2026-05-08 17:19 | 60.41813 | 64.53901 | 5999 ft | 175 kts | 331° |
| 2026-05-08 17:20 | 60.42906 | 64.52828 | 5997 ft | 175 kts | 331° |
| 2026-05-08 17:20 | 60.43995 | 64.51757 | 5999 ft | 174 kts | 331° |
| 2026-05-08 17:20 | 60.45081 | 64.50690 | 6000 ft | 174 kts | 331° |
| 2026-05-08 17:20 | 60.46166 | 64.49621 | 6000 ft | 174 kts | 331° |
| 2026-05-08 17:21 | 60.47255 | 64.48549 | 6000 ft | 174 kts | 331° |
| 2026-05-08 17:21 | 60.48342 | 64.47477 | 6000 ft | 174 kts | 331° |
| 2026-05-08 17:21 | 60.49428 | 64.46406 | 6000 ft | 174 kts | 331° |
| 2026-05-08 17:21 | 60.50512 | 64.45335 | 6000 ft | 174 kts | 331° |
| 2026-05-08 17:22 | 60.51595 | 64.44265 | 5996 ft | 173 kts | 331° |
| 2026-05-08 17:22 | 60.52679 | 64.43194 | 5997 ft | 173 kts | 331° |
| 2026-05-08 17:22 | 60.53760 | 64.42124 | 5997 ft | 174 kts | 331° |
| 2026-05-08 17:22 | 60.54847 | 64.41047 | 5999 ft | 174 kts | 331° |
| 2026-05-08 17:23 | 60.55932 | 64.39972 | 6002 ft | 173 kts | 331° |
| 2026-05-08 17:23 | 60.57012 | 64.38901 | 6003 ft | 173 kts | 331° |
| 2026-05-08 17:23 | 60.58095 | 64.37827 | 6003 ft | 174 kts | 331° |
| 2026-05-08 17:23 | 60.59179 | 64.36749 | 6000 ft | 174 kts | 331° |
| 2026-05-08 17:24 | 60.60262 | 64.35673 | 6002 ft | 173 kts | 331° |
| 2026-05-08 17:24 | 60.61344 | 64.34597 | 6002 ft | 173 kts | 331° |
| 2026-05-08 17:24 | 60.62424 | 64.33521 | 6001 ft | 174 kts | 331° |
| 2026-05-08 17:24 | 60.63147 | 64.32801 | 5998 ft | 174 kts | 331° |
| 2026-05-08 17:25 | 60.64595 | 64.31358 | 5996 ft | 174 kts | 331° |
| 2026-05-08 17:25 | 60.65679 | 64.30277 | 6005 ft | 173 kts | 330° |
| 2026-05-08 17:25 | 60.66754 | 64.29204 | 6005 ft | 172 kts | 329° |
| 2026-05-08 17:25 | 60.67822 | 64.28136 | 6002 ft | 171 kts | 329° |
| 2026-05-08 17:26 | 60.68884 | 64.27074 | 6000 ft | 171 kts | 330° |
| 2026-05-08 17:26 | 60.69593 | 64.26364 | 6000 ft | 170 kts | 330° |
| 2026-05-08 17:26 | 60.70653 | 64.25302 | 5999 ft | 170 kts | 329° |
| 2026-05-08 17:26 | 60.72062 | 64.23891 | 6001 ft | 169 kts | 329° |
| 2026-05-08 17:27 | 60.73116 | 64.22834 | 6001 ft | 169 kts | 329° |
| 2026-05-08 17:27 | 60.74170 | 64.21776 | 6001 ft | 169 kts | 329° |
| 2026-05-08 17:27 | 60.75222 | 64.20720 | 6001 ft | 169 kts | 329° |
| 2026-05-08 17:27 | 60.76271 | 64.19665 | 6004 ft | 169 kts | 329° |
| 2026-05-08 17:28 | 60.77322 | 64.18607 | 6002 ft | 169 kts | 329° |
| 2026-05-08 17:28 | 60.78373 | 64.17549 | 6002 ft | 169 kts | 329° |
| 2026-05-08 17:28 | 60.79424 | 64.16491 | 6002 ft | 169 kts | 329° |
| 2026-05-08 17:28 | 60.80476 | 64.15429 | 6002 ft | 169 kts | 329° |
| 2026-05-08 17:29 | 60.81530 | 64.14366 | 6002 ft | 169 kts | 329° |
| 2026-05-08 17:29 | 60.82587 | 64.13300 | 6002 ft | 169 kts | 329° |
| 2026-05-08 17:29 | 60.83638 | 64.12237 | 6002 ft | 169 kts | 329° |
| 2026-05-08 17:29 | 60.84692 | 64.11172 | 6004 ft | 169 kts | 329° |
| 2026-05-08 17:30 | 60.85745 | 64.10107 | 6005 ft | 169 kts | 329° |
| 2026-05-08 17:30 | 60.86795 | 64.09045 | 6010 ft | 169 kts | 329° |
| 2026-05-08 17:30 | 60.87848 | 64.07978 | 6010 ft | 169 kts | 329° |
| 2026-05-08 17:30 | 60.88898 | 64.06913 | 6011 ft | 169 kts | 329° |
| 2026-05-08 17:31 | 60.89946 | 64.05849 | 6014 ft | 168 kts | 329° |
| 2026-05-08 17:31 | 60.90994 | 64.04785 | 6014 ft | 168 kts | 329° |
| 2026-05-08 17:31 | 60.92041 | 64.03721 | 6013 ft | 168 kts | 329° |
| 2026-05-08 17:31 | 60.93081 | 64.02668 | 5937 ft | 161 kts | 329° |
| 2026-05-08 17:32 | 60.94052 | 64.01702 | 5831 ft | 151 kts | 328° |
| 2026-05-08 17:32 | 60.94977 | 64.00774 | 5727 ft | 145 kts | 329° |
| 2026-05-08 17:32 | 60.95882 | 63.99921 | 5642 ft | 143 kts | 330° |
| 2026-05-08 17:32 | 60.96806 | 63.99066 | 5606 ft | 148 kts | 331° |
| 2026-05-08 17:33 | 60.97753 | 63.98190 | 5583 ft | 151 kts | 331° |
| 2026-05-08 17:33 | 60.98713 | 63.97302 | 5555 ft | 152 kts | 331° |
| 2026-05-08 17:33 | 60.99679 | 63.96406 | 5529 ft | 154 kts | 331° |
| 2026-05-08 17:33 | 61.00666 | 63.95487 | 5513 ft | 158 kts | 332° |
| 2026-05-08 17:34 | 61.01334 | 63.94867 | 5506 ft | 159 kts | 332° |
| 2026-05-08 17:34 | 61.02679 | 63.93618 | 5494 ft | 160 kts | 332° |
| 2026-05-08 17:34 | 61.03692 | 63.92676 | 5486 ft | 160 kts | 332° |
| 2026-05-08 17:34 | 61.04705 | 63.91733 | 5478 ft | 160 kts | 332° |
| 2026-05-08 17:35 | 61.05717 | 63.90790 | 5471 ft | 160 kts | 332° |
| 2026-05-08 17:35 | 61.06731 | 63.89844 | 5463 ft | 160 kts | 332° |
| 2026-05-08 17:35 | 61.07745 | 63.88896 | 5433 ft | 160 kts | 332° |
| 2026-05-08 17:35 | 61.08733 | 63.87979 | 5242 ft | 149 kts | 332° |
| 2026-05-08 17:36 | 61.09611 | 63.87167 | 5058 ft | 129 kts | 332° |
| 2026-05-08 17:36 | 61.10428 | 63.86397 | 4894 ft | 130 kts | 332° |
| 2026-05-08 17:36 | 61.11251 | 63.85622 | 4720 ft | 131 kts | 333° |
| 2026-05-08 17:36 | 61.12082 | 63.84841 | 4538 ft | 132 kts | 334° |
| 2026-05-08 17:37 | 61.12910 | 63.84065 | 4367 ft | 130 kts | 334° |
| 2026-05-08 17:37 | 61.13730 | 63.83299 | 4194 ft | 129 kts | 334° |
| 2026-05-08 17:37 | 61.14547 | 63.82532 | 4019 ft | 129 kts | 335° |
| 2026-05-08 17:37 | 61.15356 | 63.81774 | 3852 ft | 127 kts | 336° |
| 2026-05-08 17:38 | 61.16155 | 63.81023 | 3686 ft | 126 kts | 336° |
| 2026-05-08 17:38 | 61.16953 | 63.80274 | 3501 ft | 126 kts | 338° |
| 2026-05-08 17:38 | 61.17745 | 63.79529 | 3333 ft | 125 kts | 338° |
| 2026-05-08 17:38 | 61.18529 | 63.78792 | 3164 ft | 123 kts | 338° |
| 2026-05-08 17:39 | 61.19293 | 63.78072 | 3001 ft | 120 kts | 338° |
| 2026-05-08 17:39 | 61.20052 | 63.77358 | 2848 ft | 120 kts | 341° |
| 2026-05-08 17:39 | 61.20557 | 63.76883 | 2743 ft | 119 kts | 341° |
| 2026-05-08 17:39 | 61.21558 | 63.75943 | 2535 ft | 119 kts | 341° |
| 2026-05-08 17:40 | 61.22307 | 63.75238 | 2367 ft | 116 kts | 341° |
| 2026-05-08 17:40 | 61.22782 | 63.74788 | 2273 ft | 111 kts | 341° |
| 2026-05-08 17:40 | 61.23694 | 63.73926 | 2084 ft | 106 kts | 341° |
| 2026-05-08 17:40 | 61.24359 | 63.73297 | 1947 ft | 105 kts | 341° |
| 2026-05-08 17:41 | 61.24963 | 63.72453 | 1799 ft | 112 kts | 315° |
| 2026-05-08 17:41 | 61.25520 | 63.71370 | 1860 ft | 109 kts | 323° |
| 2026-05-08 17:41 | 61.26088 | 63.70361 | 1908 ft | 109 kts | 324° |
| 2026-05-08 17:41 | 61.26677 | 63.69442 | 1856 ft | 101 kts | 326° |
| 2026-05-08 17:42 | 61.27202 | 63.68531 | 1743 ft | 97 kts | 324° |
| 2026-05-08 17:42 | 61.27733 | 63.67699 | 1619 ft | 95 kts | 329° |
| 2026-05-08 17:42 | 61.28279 | 63.66908 | 1464 ft | 97 kts | 330° |
| 2026-05-08 17:42 | 61.28838 | 63.66123 | 1306 ft | 97 kts | 330° |
| 2026-05-08 17:43 | 61.29198 | 63.65599 | 1233 ft | 89 kts | 328° |
| 2026-05-08 17:43 | 61.29827 | 63.64613 | 978 ft | 84 kts | 326° |
| 2026-05-08 17:43 | 61.30130 | 63.64132 | 844 ft | 82 kts | 329° |
| 2026-05-08 17:43 | 61.30752 | 63.63148 | 596 ft | 81 kts | 324° |
| 2026-05-08 17:44 | 61.31059 | 63.62656 | 526 ft | 83 kts | 327° |
| 2026-05-08 17:44 | 61.31668 | 63.61698 | 362 ft | 80 kts | 323° |
| 2026-05-08 17:44 | 61.32017 | 63.61133 | 351 ft | 52 kts | 322° |
| 2026-05-08 17:44 | 61.32192 | 63.60855 | 353 ft | 44 kts | 320° |
| 2026-05-08 17:45 | 61.32457 | 63.60423 | 352 ft | 21 kts | 324° |
| 2026-05-08 17:45 | 61.32553 | 63.60433 | 352 ft | 16 kts | 52° |
| 2026-05-08 17:45 | 61.32624 | 63.60623 | 351 ft | 15 kts | 46° |
| 2026-05-08 17:45 | 61.32693 | 63.60614 | 351 ft | 9 kts | 67° |
| 2026-05-08 17:46 | 61.32700 | 63.60632 | 356 ft | 4 kts | 221° |
| 2026-05-08 17:46 | 61.32695 | 63.60614 | 351 ft | 0 kts | 233° |